sensor_id;sensor_type;location;lat;lon;timestamp;pressure;altitude;pressure_sealevel;temperature;humidity
56681;BME280;42558;52.388;13.390;2023-11-19T00:01:11;101107.63;;;2.89;100.00
56681;BME280;42558;52.388;13.390;2023-11-19T00:03:41;101102.83;;;2.91;100.00
56681;BME280;42558;52.388;13.390;2023-11-19T00:06:11;101097.70;;;2.93;100.00
56681;BME280;42558;52.388;13.390;2023-11-19T00:08:41;101094.38;;;2.95;100.00
56681;BME280;42558;52.388;13.390;2023-11-19T00:11:10;101087.83;;;2.97;100.00
56681;BME280;42558;52.388;13.390;2023-11-19T00:13:41;101074.42;;;2.96;100.00
56681;BME280;42558;52.388;13.390;2023-11-19T00:16:11;101068.55;;;2.96;100.00
56681;BME280;42558;52.388;13.390;2023-11-19T00:18:42;101062.70;;;2.98;100.00
56681;BME280;42558;52.388;13.390;2023-11-19T00:21:12;101056.75;;;2.97;100.00
56681;BME280;42558;52.388;13.390;2023-11-19T00:23:41;101044.45;;;2.98;100.00
56681;BME280;42558;52.388;13.390;2023-11-19T00:26:11;101042.09;;;2.99;100.00
56681;BME280;42558;52.388;13.390;2023-11-19T00:28:43;101044.23;;;3.00;100.00
56681;BME280;42558;52.388;13.390;2023-11-19T00:31:13;101048.96;;;3.01;100.00
56681;BME280;42558;52.388;13.390;2023-11-19T00:33:41;101049.89;;;3.03;100.00
56681;BME280;42558;52.388;13.390;2023-11-19T00:36:13;101043.31;;;3.03;100.00
56681;BME280;42558;52.388;13.390;2023-11-19T00:38:41;101040.08;;;3.05;100.00
56681;BME280;42558;52.388;13.390;2023-11-19T00:41:10;101030.67;;;3.04;100.00
56681;BME280;42558;52.388;13.390;2023-11-19T00:43:38;101029.14;;;3.05;100.00
56681;BME280;42558;52.388;13.390;2023-11-19T00:46:07;101014.95;;;3.06;100.00
56681;BME280;42558;52.388;13.390;2023-11-19T00:48:35;101009.27;;;3.07;100.00
56681;BME280;42558;52.388;13.390;2023-11-19T00:51:04;101004.16;;;3.05;100.00
56681;BME280;42558;52.388;13.390;2023-11-19T00:53:32;100995.52;;;3.06;100.00
56681;BME280;42558;52.388;13.390;2023-11-19T00:56:00;100983.14;;;3.05;100.00
56681;BME280;42558;52.388;13.390;2023-11-19T00:58:28;100977.79;;;3.06;100.00
56681;BME280;42558;52.388;13.390;2023-11-19T01:00:57;100965.17;;;3.07;100.00
56681;BME280;42558;52.388;13.390;2023-11-19T01:03:27;100960.20;;;3.08;100.00
56681;BME280;42558;52.388;13.390;2023-11-19T01:05:57;100944.86;;;3.07;100.00
56681;BME280;42558;52.388;13.390;2023-11-19T01:08:29;100940.61;;;3.09;100.00
56681;BME280;42558;52.388;13.390;2023-11-19T01:10:59;100937.90;;;3.11;100.00
56681;BME280;42558;52.388;13.390;2023-11-19T01:13:29;100935.73;;;3.13;100.00
56681;BME280;42558;52.388;13.390;2023-11-19T01:16:00;100920.66;;;3.14;100.00
56681;BME280;42558;52.388;13.390;2023-11-19T01:18:32;100902.48;;;3.15;100.00
56681;BME280;42558;52.388;13.390;2023-11-19T01:21:02;100893.52;;;3.16;100.00
56681;BME280;42558;52.388;13.390;2023-11-19T01:23:32;100893.41;;;3.18;100.00
56681;BME280;42558;52.388;13.390;2023-11-19T01:26:04;100878.00;;;3.19;100.00
56681;BME280;42558;52.388;13.390;2023-11-19T01:28:35;100864.78;;;3.19;100.00
56681;BME280;42558;52.388;13.390;2023-11-19T01:31:06;100861.88;;;3.23;100.00
56681;BME280;42558;52.388;13.390;2023-11-19T01:33:39;100854.35;;;3.26;100.00
56681;BME280;42558;52.388;13.390;2023-11-19T01:36:08;100848.12;;;3.27;100.00
56681;BME280;42558;52.388;13.390;2023-11-19T01:38:36;100847.60;;;3.27;100.00
56681;BME280;42558;52.388;13.390;2023-11-19T01:41:04;100848.15;;;3.27;100.00
56681;BME280;42558;52.388;13.390;2023-11-19T01:43:38;100842.26;;;3.31;100.00
56681;BME280;42558;52.388;13.390;2023-11-19T01:46:08;100840.34;;;3.35;100.00
56681;BME280;42558;52.388;13.390;2023-11-19T01:48:46;100825.02;;;3.35;100.00
56681;BME280;42558;52.388;13.390;2023-11-19T01:51:16;100825.72;;;3.35;100.00
56681;BME280;42558;52.388;13.390;2023-11-19T01:53:46;100819.77;;;3.34;100.00
56681;BME280;42558;52.388;13.390;2023-11-19T01:56:17;100816.00;;;3.35;100.00
56681;BME280;42558;52.388;13.390;2023-11-19T01:58:49;100803.96;;;3.34;100.00
56681;BME280;42558;52.388;13.390;2023-11-19T02:01:18;100789.61;;;3.35;100.00
56681;BME280;42558;52.388;13.390;2023-11-19T02:03:48;100782.88;;;3.36;100.00
56681;BME280;42558;52.388;13.390;2023-11-19T02:06:18;100788.33;;;3.38;100.00
56681;BME280;42558;52.388;13.390;2023-11-19T02:08:50;100776.23;;;3.40;100.00
56681;BME280;42558;52.388;13.390;2023-11-19T02:11:19;100772.23;;;3.40;100.00
56681;BME280;42558;52.388;13.390;2023-11-19T02:13:49;100762.89;;;3.41;100.00
56681;BME280;42558;52.388;13.390;2023-11-19T02:16:19;100743.02;;;3.39;100.00
56681;BME280;42558;52.388;13.390;2023-11-19T02:18:47;100727.89;;;3.39;100.00
56681;BME280;42558;52.388;13.390;2023-11-19T02:21:16;100705.53;;;3.36;100.00
56681;BME280;42558;52.388;13.390;2023-11-19T02:23:45;100695.05;;;3.39;100.00
56681;BME280;42558;52.388;13.390;2023-11-19T02:28:53;100697.66;;;3.39;100.00
56681;BME280;42558;52.388;13.390;2023-11-19T02:31:23;100685.14;;;3.39;100.00
56681;BME280;42558;52.388;13.390;2023-11-19T02:33:53;100675.77;;;3.39;100.00
56681;BME280;42558;52.388;13.390;2023-11-19T02:36:22;100679.16;;;3.41;100.00
56681;BME280;42558;52.388;13.390;2023-11-19T02:38:52;100662.98;;;3.41;100.00
56681;BME280;42558;52.388;13.390;2023-11-19T02:41:22;100660.17;;;3.40;100.00
56681;BME280;42558;52.388;13.390;2023-11-19T02:43:52;100655.63;;;3.40;100.00
56681;BME280;42558;52.388;13.390;2023-11-19T02:46:23;100666.81;;;3.41;100.00
56681;BME280;42558;52.388;13.390;2023-11-19T02:48:53;100663.39;;;3.42;100.00
56681;BME280;42558;52.388;13.390;2023-11-19T02:51:23;100656.43;;;3.42;100.00
56681;BME280;42558;52.388;13.390;2023-11-19T02:53:53;100648.29;;;3.42;100.00
56681;BME280;42558;52.388;13.390;2023-11-19T02:56:23;100634.39;;;3.42;100.00
56681;BME280;42558;52.388;13.390;2023-11-19T02:58:56;100621.20;;;3.43;100.00
56681;BME280;42558;52.388;13.390;2023-11-19T03:01:26;100602.33;;;3.45;100.00
56681;BME280;42558;52.388;13.390;2023-11-19T03:04:01;100596.82;;;3.46;100.00
56681;BME280;42558;52.388;13.390;2023-11-19T03:06:33;100601.77;;;3.48;100.00
56681;BME280;42558;52.388;13.390;2023-11-19T03:09:03;100597.42;;;3.48;100.00
56681;BME280;42558;52.388;13.390;2023-11-19T03:11:37;100591.52;;;3.48;100.00
56681;BME280;42558;52.388;13.390;2023-11-19T03:14:08;100583.56;;;3.49;100.00
56681;BME280;42558;52.388;13.390;2023-11-19T03:16:38;100582.60;;;3.51;100.00
56681;BME280;42558;52.388;13.390;2023-11-19T03:19:08;100589.77;;;3.57;100.00
56681;BME280;42558;52.388;13.390;2023-11-19T03:21:38;100592.80;;;3.59;100.00
56681;BME280;42558;52.388;13.390;2023-11-19T03:24:08;100586.07;;;3.61;100.00
56681;BME280;42558;52.388;13.390;2023-11-19T03:26:37;100587.28;;;3.61;100.00
56681;BME280;42558;52.388;13.390;2023-11-19T03:29:08;100577.87;;;3.60;100.00
56681;BME280;42558;52.388;13.390;2023-11-19T03:31:42;100573.91;;;3.56;100.00
56681;BME280;42558;52.388;13.390;2023-11-19T03:34:12;100570.13;;;3.52;100.00
56681;BME280;42558;52.388;13.390;2023-11-19T03:36:40;100570.73;;;3.46;100.00
56681;BME280;42558;52.388;13.390;2023-11-19T03:39:09;100567.66;;;3.43;100.00
56681;BME280;42558;52.388;13.390;2023-11-19T03:41:37;100564.06;;;3.40;100.00
56681;BME280;42558;52.388;13.390;2023-11-19T03:44:10;100551.27;;;3.37;100.00
56681;BME280;42558;52.388;13.390;2023-11-19T03:46:40;100553.48;;;3.36;100.00
56681;BME280;42558;52.388;13.390;2023-11-19T03:49:11;100548.90;;;3.38;100.00
56681;BME280;42558;52.388;13.390;2023-11-19T03:51:41;100538.40;;;3.27;100.00
56681;BME280;42558;52.388;13.390;2023-11-19T03:54:11;100523.50;;;3.24;100.00
56681;BME280;42558;52.388;13.390;2023-11-19T03:56:41;100518.64;;;3.20;100.00
56681;BME280;42558;52.388;13.390;2023-11-19T03:59:11;100523.39;;;3.17;100.00
56681;BME280;42558;52.388;13.390;2023-11-19T04:01:41;100523.36;;;3.16;100.00
56681;BME280;42558;52.388;13.390;2023-11-19T04:04:12;100504.91;;;3.15;100.00
56681;BME280;42558;52.388;13.390;2023-11-19T04:06:42;100487.19;;;3.15;100.00
56681;BME280;42558;52.388;13.390;2023-11-19T04:09:12;100469.30;;;3.15;100.00
56681;BME280;42558;52.388;13.390;2023-11-19T04:11:42;100455.99;;;3.13;100.00
56681;BME280;42558;52.388;13.390;2023-11-19T04:14:12;100449.50;;;3.11;100.00
56681;BME280;42558;52.388;13.390;2023-11-19T04:16:43;100444.79;;;3.10;100.00
56681;BME280;42558;52.388;13.390;2023-11-19T04:19:13;100452.71;;;3.13;100.00
56681;BME280;42558;52.388;13.390;2023-11-19T04:21:43;100448.54;;;3.13;100.00
56681;BME280;42558;52.388;13.390;2023-11-19T04:24:13;100436.89;;;3.13;100.00
56681;BME280;42558;52.388;13.390;2023-11-19T04:26:42;100424.63;;;3.10;100.00
56681;BME280;42558;52.388;13.390;2023-11-19T04:29:14;100408.71;;;3.07;100.00
56681;BME280;42558;52.388;13.390;2023-11-19T04:31:46;100405.41;;;3.07;100.00
56681;BME280;42558;52.388;13.390;2023-11-19T04:34:16;100396.88;;;3.06;100.00
56681;BME280;42558;52.388;13.390;2023-11-19T04:36:46;100385.10;;;3.07;100.00
56681;BME280;42558;52.388;13.390;2023-11-19T04:39:16;100392.16;;;3.10;100.00
56681;BME280;42558;52.388;13.390;2023-11-19T04:41:49;100387.09;;;3.09;100.00
56681;BME280;42558;52.388;13.390;2023-11-19T04:44:19;100389.23;;;3.11;100.00
56681;BME280;42558;52.388;13.390;2023-11-19T04:46:49;100392.60;;;3.13;100.00
56681;BME280;42558;52.388;13.390;2023-11-19T04:49:19;100396.70;;;3.11;100.00
56681;BME280;42558;52.388;13.390;2023-11-19T04:51:49;100403.34;;;3.16;100.00
56681;BME280;42558;52.388;13.390;2023-11-19T04:54:19;100403.04;;;3.17;100.00
56681;BME280;42558;52.388;13.390;2023-11-19T04:56:49;100409.11;;;3.17;100.00
56681;BME280;42558;52.388;13.390;2023-11-19T04:59:19;100413.29;;;3.22;100.00
56681;BME280;42558;52.388;13.390;2023-11-19T05:01:49;100409.29;;;3.22;100.00
56681;BME280;42558;52.388;13.390;2023-11-19T05:04:19;100405.66;;;3.18;100.00
56681;BME280;42558;52.388;13.390;2023-11-19T05:06:49;100392.23;;;3.16;100.00
56681;BME280;42558;52.388;13.390;2023-11-19T05:09:19;100386.67;;;3.16;100.00
56681;BME280;42558;52.388;13.390;2023-11-19T05:11:49;100371.92;;;3.17;100.00
56681;BME280;42558;52.388;13.390;2023-11-19T05:14:19;100367.80;;;3.14;100.00
56681;BME280;42558;52.388;13.390;2023-11-19T05:16:50;100365.23;;;3.14;100.00
56681;BME280;42558;52.388;13.390;2023-11-19T05:19:20;100358.13;;;3.15;100.00
56681;BME280;42558;52.388;13.390;2023-11-19T05:21:48;100356.93;;;3.15;100.00
56681;BME280;42558;52.388;13.390;2023-11-19T05:24:20;100345.85;;;3.16;100.00
56681;BME280;42558;52.388;13.390;2023-11-19T05:26:48;100341.88;;;3.17;100.00
56681;BME280;42558;52.388;13.390;2023-11-19T05:29:20;100347.09;;;3.17;100.00
56681;BME280;42558;52.388;13.390;2023-11-19T05:31:48;100333.55;;;3.17;100.00
56681;BME280;42558;52.388;13.390;2023-11-19T05:34:16;100327.01;;;3.19;100.00
56681;BME280;42558;52.388;13.390;2023-11-19T05:36:45;100328.20;;;3.18;100.00
56681;BME280;42558;52.388;13.390;2023-11-19T05:39:13;100324.02;;;3.18;100.00
56681;BME280;42558;52.388;13.390;2023-11-19T05:41:42;100324.96;;;3.20;100.00
56681;BME280;42558;52.388;13.390;2023-11-19T05:44:10;100317.54;;;3.21;100.00
56681;BME280;42558;52.388;13.390;2023-11-19T05:46:39;100304.90;;;3.22;100.00
56681;BME280;42558;52.388;13.390;2023-11-19T05:49:11;100298.44;;;3.21;100.00
56681;BME280;42558;52.388;13.390;2023-11-19T05:51:41;100293.86;;;3.20;100.00
56681;BME280;42558;52.388;13.390;2023-11-19T05:54:10;100291.83;;;3.21;100.00
56681;BME280;42558;52.388;13.390;2023-11-19T05:56:41;100291.31;;;3.21;100.00
56681;BME280;42558;52.388;13.390;2023-11-19T05:59:11;100287.55;;;3.22;100.00
56681;BME280;42558;52.388;13.390;2023-11-19T06:01:44;100278.85;;;3.22;100.00
56681;BME280;42558;52.388;13.390;2023-11-19T06:04:14;100268.63;;;3.23;100.00
56681;BME280;42558;52.388;13.390;2023-11-19T06:06:44;100266.63;;;3.25;100.00
56681;BME280;42558;52.388;13.390;2023-11-19T06:09:14;100265.99;;;3.27;100.00
56681;BME280;42558;52.388;13.390;2023-11-19T06:11:44;100262.44;;;3.25;100.00
56681;BME280;42558;52.388;13.390;2023-11-19T06:14:14;100259.67;;;3.25;100.00
56681;BME280;42558;52.388;13.390;2023-11-19T06:16:44;100252.59;;;3.26;100.00
56681;BME280;42558;52.388;13.390;2023-11-19T06:19:14;100239.55;;;3.26;100.00
56681;BME280;42558;52.388;13.390;2023-11-19T06:21:44;100242.91;;;3.28;100.00
56681;BME280;42558;52.388;13.390;2023-11-19T06:24:14;100242.35;;;3.27;100.00
56681;BME280;42558;52.388;13.390;2023-11-19T06:26:44;100228.17;;;3.28;100.00
56681;BME280;42558;52.388;13.390;2023-11-19T06:29:14;100215.71;;;3.30;100.00
56681;BME280;42558;52.388;13.390;2023-11-19T06:31:47;100209.66;;;3.31;100.00
56681;BME280;42558;52.388;13.390;2023-11-19T06:34:17;100205.56;;;3.33;100.00
56681;BME280;42558;52.388;13.390;2023-11-19T06:36:47;100217.59;;;3.34;100.00
56681;BME280;42558;52.388;13.390;2023-11-19T06:39:18;100208.06;;;3.35;100.00
56681;BME280;42558;52.388;13.390;2023-11-19T06:41:48;100201.71;;;3.37;100.00
56681;BME280;42558;52.388;13.390;2023-11-19T06:44:18;100194.96;;;3.38;100.00
56681;BME280;42558;52.388;13.390;2023-11-19T06:46:48;100195.86;;;3.39;100.00
56681;BME280;42558;52.388;13.390;2023-11-19T06:49:18;100195.06;;;3.41;100.00
56681;BME280;42558;52.388;13.390;2023-11-19T06:51:48;100198.21;;;3.41;100.00
56681;BME280;42558;52.388;13.390;2023-11-19T06:54:18;100189.77;;;3.43;100.00
56681;BME280;42558;52.388;13.390;2023-11-19T06:56:48;100180.59;;;3.45;100.00
56681;BME280;42558;52.388;13.390;2023-11-19T06:59:18;100166.39;;;3.46;100.00
56681;BME280;42558;52.388;13.390;2023-11-19T07:01:49;100167.02;;;3.50;100.00
56681;BME280;42558;52.388;13.390;2023-11-19T07:04:18;100160.25;;;3.50;100.00
56681;BME280;42558;52.388;13.390;2023-11-19T07:06:48;100158.56;;;3.51;100.00
56681;BME280;42558;52.388;13.390;2023-11-19T07:09:17;100157.55;;;3.52;100.00
56681;BME280;42558;52.388;13.390;2023-11-19T07:11:45;100151.21;;;3.55;100.00
56681;BME280;42558;52.388;13.390;2023-11-19T07:14:14;100164.86;;;3.59;100.00
56681;BME280;42558;52.388;13.390;2023-11-19T07:16:43;100171.64;;;3.64;100.00
56681;BME280;42558;52.388;13.390;2023-11-19T07:19:10;100173.11;;;3.67;100.00
56681;BME280;42558;52.388;13.390;2023-11-19T07:21:42;100173.38;;;3.69;100.00
56681;BME280;42558;52.388;13.390;2023-11-19T07:24:13;100171.55;;;3.72;100.00
56681;BME280;42558;52.388;13.390;2023-11-19T07:26:47;100170.27;;;3.75;100.00
56681;BME280;42558;52.388;13.390;2023-11-19T07:29:16;100168.33;;;3.80;100.00
56681;BME280;42558;52.388;13.390;2023-11-19T07:31:58;100162.89;;;3.84;100.00
56681;BME280;42558;52.388;13.390;2023-11-19T07:34:28;100158.71;;;3.89;100.00
56681;BME280;42558;52.388;13.390;2023-11-19T07:36:58;100157.27;;;3.94;100.00
56681;BME280;42558;52.388;13.390;2023-11-19T07:39:32;100156.19;;;3.98;100.00
56681;BME280;42558;52.388;13.390;2023-11-19T07:42:03;100159.94;;;4.01;100.00
56681;BME280;42558;52.388;13.390;2023-11-19T07:44:32;100164.58;;;4.05;100.00
56681;BME280;42558;52.388;13.390;2023-11-19T07:47:01;100164.86;;;4.08;100.00
56681;BME280;42558;52.388;13.390;2023-11-19T07:49:29;100159.73;;;4.12;100.00
56681;BME280;42558;52.388;13.390;2023-11-19T07:51:59;100160.75;;;4.17;100.00
56681;BME280;42558;52.388;13.390;2023-11-19T07:54:27;100164.65;;;4.20;100.00
56681;BME280;42558;52.388;13.390;2023-11-19T07:56:55;100165.63;;;4.23;100.00
56681;BME280;42558;52.388;13.390;2023-11-19T07:59:23;100173.91;;;4.27;100.00
56681;BME280;42558;52.388;13.390;2023-11-19T08:01:52;100170.42;;;4.32;100.00
56681;BME280;42558;52.388;13.390;2023-11-19T08:04:20;100167.92;;;4.36;100.00
56681;BME280;42558;52.388;13.390;2023-11-19T08:06:48;100157.08;;;4.40;100.00
56681;BME280;42558;52.388;13.390;2023-11-19T08:09:17;100152.31;;;4.44;100.00
56681;BME280;42558;52.388;13.390;2023-11-19T08:11:45;100153.35;;;4.50;100.00
56681;BME280;42558;52.388;13.390;2023-11-19T08:14:14;100162.02;;;4.55;100.00
56681;BME280;42558;52.388;13.390;2023-11-19T08:16:42;100164.23;;;4.59;100.00
56681;BME280;42558;52.388;13.390;2023-11-19T08:19:11;100157.00;;;4.62;100.00
56681;BME280;42558;52.388;13.390;2023-11-19T08:21:39;100153.98;;;4.67;100.00
56681;BME280;42558;52.388;13.390;2023-11-19T08:24:07;100148.36;;;4.72;100.00
56681;BME280;42558;52.388;13.390;2023-11-19T08:26:36;100146.63;;;4.78;100.00
56681;BME280;42558;52.388;13.390;2023-11-19T08:29:05;100139.89;;;4.86;100.00
56681;BME280;42558;52.388;13.390;2023-11-19T08:31:33;100142.60;;;4.97;100.00
56681;BME280;42558;52.388;13.390;2023-11-19T08:34:01;100139.41;;;5.08;100.00
56681;BME280;42558;52.388;13.390;2023-11-19T08:36:29;100139.08;;;5.15;100.00
56681;BME280;42558;52.388;13.390;2023-11-19T08:38:58;100133.04;;;5.17;100.00
56681;BME280;42558;52.388;13.390;2023-11-19T08:41:26;100126.66;;;5.21;100.00
56681;BME280;42558;52.388;13.390;2023-11-19T08:43:55;100127.35;;;5.28;100.00
56681;BME280;42558;52.388;13.390;2023-11-19T08:46:23;100130.11;;;5.34;100.00
56681;BME280;42558;52.388;13.390;2023-11-19T08:48:52;100136.55;;;5.40;100.00
56681;BME280;42558;52.388;13.390;2023-11-19T08:51:20;100129.40;;;5.47;100.00
56681;BME280;42558;52.388;13.390;2023-11-19T08:53:49;100134.98;;;5.55;100.00
56681;BME280;42558;52.388;13.390;2023-11-19T08:56:17;100129.52;;;5.67;100.00
56681;BME280;42558;52.388;13.390;2023-11-19T08:58:45;100134.16;;;5.80;100.00
56681;BME280;42558;52.388;13.390;2023-11-19T09:04:44;100139.35;;;5.86;100.00
56681;BME280;42558;52.388;13.390;2023-11-19T09:07:14;100132.72;;;5.86;100.00
56681;BME280;42558;52.388;13.390;2023-11-19T09:09:44;100132.87;;;5.91;100.00
56681;BME280;42558;52.388;13.390;2023-11-19T09:12:14;100131.64;;;5.97;100.00
56681;BME280;42558;52.388;13.390;2023-11-19T09:14:43;100131.71;;;6.01;100.00
56681;BME280;42558;52.388;13.390;2023-11-19T09:17:15;100133.23;;;6.07;100.00
56681;BME280;42558;52.388;13.390;2023-11-19T09:19:46;100126.70;;;6.20;100.00
56681;BME280;42558;52.388;13.390;2023-11-19T09:22:16;100129.15;;;6.38;100.00
56681;BME280;42558;52.388;13.390;2023-11-19T09:24:46;100126.13;;;6.62;100.00
56681;BME280;42558;52.388;13.390;2023-11-19T09:27:18;100126.11;;;6.89;100.00
56681;BME280;42558;52.388;13.390;2023-11-19T09:29:48;100121.97;;;6.92;100.00
56681;BME280;42558;52.388;13.390;2023-11-19T09:32:19;100121.78;;;6.91;100.00
56681;BME280;42558;52.388;13.390;2023-11-19T09:34:49;100117.86;;;7.06;100.00
56681;BME280;42558;52.388;13.390;2023-11-19T09:37:19;100110.12;;;8.08;100.00
56681;BME280;42558;52.388;13.390;2023-11-19T09:39:51;100115.20;;;9.43;100.00
56681;BME280;42558;52.388;13.390;2023-11-19T09:42:21;100117.14;;;9.93;100.00
56681;BME280;42558;52.388;13.390;2023-11-19T09:44:51;100121.55;;;9.01;100.00
56681;BME280;42558;52.388;13.390;2023-11-19T09:47:22;100112.89;;;10.17;100.00
56681;BME280;42558;52.388;13.390;2023-11-19T09:49:53;100118.50;;;10.12;100.00
56681;BME280;42558;52.388;13.390;2023-11-19T09:52:27;100114.97;;;10.07;100.00
56681;BME280;42558;52.388;13.390;2023-11-19T09:54:57;100107.36;;;10.86;100.00
56681;BME280;42558;52.388;13.390;2023-11-19T09:57:26;100105.20;;;10.19;100.00
56681;BME280;42558;52.388;13.390;2023-11-19T09:59:57;100104.01;;;10.30;100.00
56681;BME280;42558;52.388;13.390;2023-11-19T10:02:29;100101.42;;;11.31;100.00
56681;BME280;42558;52.388;13.390;2023-11-19T10:05:06;100104.95;;;11.38;100.00
56681;BME280;42558;52.388;13.390;2023-11-19T10:07:36;100109.14;;;10.89;100.00
56681;BME280;42558;52.388;13.390;2023-11-19T10:10:06;100107.66;;;10.62;100.00
56681;BME280;42558;52.388;13.390;2023-11-19T10:12:36;100108.95;;;10.87;100.00
56681;BME280;42558;52.388;13.390;2023-11-19T10:15:12;100107.12;;;10.57;100.00
56681;BME280;42558;52.388;13.390;2023-11-19T10:17:46;100106.88;;;11.25;100.00
56681;BME280;42558;52.388;13.390;2023-11-19T10:20:17;100103.78;;;10.56;100.00
56681;BME280;42558;52.388;13.390;2023-11-19T10:22:47;100106.05;;;10.12;100.00
56681;BME280;42558;52.388;13.390;2023-11-19T10:25:27;100108.65;;;9.75;100.00
56681;BME280;42558;52.388;13.390;2023-11-19T10:27:57;100106.08;;;9.88;100.00
56681;BME280;42558;52.388;13.390;2023-11-19T10:30:29;100105.59;;;9.64;100.00
56681;BME280;42558;52.388;13.390;2023-11-19T10:33:13;100104.50;;;9.60;100.00
56681;BME280;42558;52.388;13.390;2023-11-19T10:35:56;100105.13;;;9.48;100.00
56681;BME280;42558;52.388;13.390;2023-11-19T10:38:32;100101.53;;;9.37;100.00
56681;BME280;42558;52.388;13.390;2023-11-19T10:41:04;100095.45;;;9.45;100.00
56681;BME280;42558;52.388;13.390;2023-11-19T10:43:44;100089.96;;;11.04;100.00
56681;BME280;42558;52.388;13.390;2023-11-19T10:46:14;100091.71;;;11.72;100.00
56681;BME280;42558;52.388;13.390;2023-11-19T10:48:49;100092.61;;;11.48;100.00
56681;BME280;42558;52.388;13.390;2023-11-19T10:51:20;100085.04;;;11.20;100.00
56681;BME280;42558;52.388;13.390;2023-11-19T10:54:00;100079.11;;;12.79;100.00
56681;BME280;42558;52.388;13.390;2023-11-19T10:56:34;100078.43;;;11.84;100.00
56681;BME280;42558;52.388;13.390;2023-11-19T10:59:05;100079.91;;;10.74;100.00
56681;BME280;42558;52.388;13.390;2023-11-19T11:01:53;100076.47;;;10.31;100.00
56681;BME280;42558;52.388;13.390;2023-11-19T11:04:25;100067.94;;;10.16;100.00
56681;BME280;42558;52.388;13.390;2023-11-19T11:06:58;100064.29;;;10.22;100.00
56681;BME280;42558;52.388;13.390;2023-11-19T11:09:27;100065.48;;;10.14;100.00
56681;BME280;42558;52.388;13.390;2023-11-19T11:11:58;100067.75;;;10.12;100.00
56681;BME280;42558;52.388;13.390;2023-11-19T11:14:30;100073.19;;;10.10;100.00
56681;BME280;42558;52.388;13.390;2023-11-19T11:17:02;100063.45;;;9.97;100.00
56681;BME280;42558;52.388;13.390;2023-11-19T11:19:31;100060.30;;;9.96;100.00
56681;BME280;42558;52.388;13.390;2023-11-19T11:22:03;100062.75;;;9.95;100.00
56681;BME280;42558;52.388;13.390;2023-11-19T11:28:18;100066.11;;;10.01;100.00
56681;BME280;42558;52.388;13.390;2023-11-19T11:34:23;100070.66;;;9.96;100.00
56681;BME280;42558;52.388;13.390;2023-11-19T11:37:19;100078.91;;;9.97;100.00
56681;BME280;42558;52.388;13.390;2023-11-19T11:39:53;100081.58;;;10.03;100.00
56681;BME280;42558;52.388;13.390;2023-11-19T11:45:05;100068.22;;;10.33;100.00
56681;BME280;42558;52.388;13.390;2023-11-19T11:50:17;100068.27;;;10.52;100.00
56681;BME280;42558;52.388;13.390;2023-11-19T11:55:52;100066.36;;;10.60;100.00
56681;BME280;42558;52.388;13.390;2023-11-19T11:58:32;100062.34;;;10.69;100.00
56681;BME280;42558;52.388;13.390;2023-11-19T12:01:04;100061.29;;;10.77;100.00
56681;BME280;42558;52.388;13.390;2023-11-19T12:03:37;100060.23;;;10.80;100.00
56681;BME280;42558;52.388;13.390;2023-11-19T12:06:08;100058.98;;;10.76;100.00
56681;BME280;42558;52.388;13.390;2023-11-19T12:08:38;100057.61;;;10.78;100.00
56681;BME280;42558;52.388;13.390;2023-11-19T12:11:11;100058.30;;;10.75;100.00
56681;BME280;42558;52.388;13.390;2023-11-19T12:13:53;100056.00;;;10.71;100.00
56681;BME280;42558;52.388;13.390;2023-11-19T12:16:25;100053.02;;;10.72;100.00
56681;BME280;42558;52.388;13.390;2023-11-19T12:19:03;100050.89;;;10.69;100.00
56681;BME280;42558;52.388;13.390;2023-11-19T12:21:37;100056.70;;;10.72;100.00
56681;BME280;42558;52.388;13.390;2023-11-19T12:24:08;100051.61;;;10.72;100.00
56681;BME280;42558;52.388;13.390;2023-11-19T12:26:40;100053.38;;;10.72;100.00
56681;BME280;42558;52.388;13.390;2023-11-19T12:29:10;100053.20;;;10.73;100.00
56681;BME280;42558;52.388;13.390;2023-11-19T12:31:44;100050.20;;;10.70;100.00
56681;BME280;42558;52.388;13.390;2023-11-19T12:34:14;100057.77;;;10.70;100.00
56681;BME280;42558;52.388;13.390;2023-11-19T12:36:44;100058.48;;;10.73;100.00
56681;BME280;42558;52.388;13.390;2023-11-19T12:39:14;100049.67;;;10.65;100.00
56681;BME280;42558;52.388;13.390;2023-11-19T12:41:51;100049.30;;;10.57;100.00
56681;BME280;42558;52.388;13.390;2023-11-19T12:44:22;100048.79;;;10.67;100.00
56681;BME280;42558;52.388;13.390;2023-11-19T12:47:07;100049.68;;;10.75;100.00
56681;BME280;42558;52.388;13.390;2023-11-19T12:49:37;100051.61;;;10.76;100.00
56681;BME280;42558;52.388;13.390;2023-11-19T12:52:13;100053.18;;;10.68;100.00
56681;BME280;42558;52.388;13.390;2023-11-19T12:54:43;100050.38;;;10.72;100.00
56681;BME280;42558;52.388;13.390;2023-11-19T12:57:13;100048.63;;;10.73;100.00
56681;BME280;42558;52.388;13.390;2023-11-19T12:59:43;100057.92;;;10.67;100.00
56681;BME280;42558;52.388;13.390;2023-11-19T13:02:13;100051.60;;;10.70;100.00
56681;BME280;42558;52.388;13.390;2023-11-19T13:04:42;100047.75;;;10.71;100.00
56681;BME280;42558;52.388;13.390;2023-11-19T13:07:12;100047.22;;;10.74;100.00
56681;BME280;42558;52.388;13.390;2023-11-19T13:09:42;100045.11;;;10.68;100.00
56681;BME280;42558;52.388;13.390;2023-11-19T13:12:15;100048.60;;;10.60;100.00
56681;BME280;42558;52.388;13.390;2023-11-19T13:14:46;100055.27;;;10.49;100.00
56681;BME280;42558;52.388;13.390;2023-11-19T13:17:17;100055.08;;;10.49;100.00